sensor_id;sensor_type;location;lat;lon;timestamp;P1;durP1;ratioP1;P2;durP2;ratioP2
48849;SDS011;63210;53.370;6.770;2023-07-31T00:00:39;5.03;;;4.20;;
48849;SDS011;63210;53.370;6.770;2023-07-31T00:03:04;7.50;;;4.77;;
48849;SDS011;63210;53.370;6.770;2023-07-31T00:05:30;7.43;;;4.63;;
48849;SDS011;63210;53.370;6.770;2023-07-31T00:07:55;8.20;;;4.78;;
48849;SDS011;63210;53.370;6.770;2023-07-31T00:10:20;8.50;;;4.60;;
48849;SDS011;63210;53.370;6.770;2023-07-31T00:12:46;5.47;;;4.45;;
48849;SDS011;63210;53.370;6.770;2023-07-31T00:15:11;7.93;;;4.80;;
48849;SDS011;63210;53.370;6.770;2023-07-31T00:17:38;5.60;;;4.50;;
48849;SDS011;63210;53.370;6.770;2023-07-31T00:20:03;7.18;;;4.78;;
48849;SDS011;63210;53.370;6.770;2023-07-31T00:22:29;8.15;;;5.05;;
48849;SDS011;63210;53.370;6.770;2023-07-31T00:24:55;6.47;;;4.93;;
48849;SDS011;63210;53.370;6.770;2023-07-31T00:27:20;7.20;;;5.03;;
48849;SDS011;63210;53.370;6.770;2023-07-31T00:29:46;8.63;;;5.03;;
48849;SDS011;63210;53.370;6.770;2023-07-31T00:32:11;6.97;;;4.93;;
48849;SDS011;63210;53.370;6.770;2023-07-31T00:34:36;7.97;;;5.60;;
48849;SDS011;63210;53.370;6.770;2023-07-31T00:37:02;8.10;;;5.57;;
48849;SDS011;63210;53.370;6.770;2023-07-31T00:39:27;6.45;;;5.32;;
48849;SDS011;63210;53.370;6.770;2023-07-31T00:41:52;6.05;;;4.40;;
48849;SDS011;63210;53.370;6.770;2023-07-31T00:44:18;7.65;;;5.57;;
48849;SDS011;63210;53.370;6.770;2023-07-31T00:46:43;6.85;;;5.63;;
48849;SDS011;63210;53.370;6.770;2023-07-31T00:49:09;7.60;;;5.63;;
48849;SDS011;63210;53.370;6.770;2023-07-31T00:51:34;5.90;;;5.15;;
48849;SDS011;63210;53.370;6.770;2023-07-31T00:54:00;6.45;;;4.88;;
48849;SDS011;63210;53.370;6.770;2023-07-31T00:56:25;6.13;;;5.28;;
48849;SDS011;63210;53.370;6.770;2023-07-31T00:58:50;4.15;;;3.72;;
48849;SDS011;63210;53.370;6.770;2023-07-31T01:01:16;4.00;;;3.57;;
48849;SDS011;63210;53.370;6.770;2023-07-31T01:03:41;3.80;;;3.40;;
48849;SDS011;63210;53.370;6.770;2023-07-31T01:11:16;6.90;;;3.90;;
48849;SDS011;63210;53.370;6.770;2023-07-31T01:13:43;9.07;;;4.47;;
48849;SDS011;63210;53.370;6.770;2023-07-31T01:16:09;4.57;;;3.70;;
48849;SDS011;63210;53.370;6.770;2023-07-31T01:18:34;3.55;;;3.25;;
48849;SDS011;63210;53.370;6.770;2023-07-31T01:21:03;5.78;;;3.45;;
48849;SDS011;63210;53.370;6.770;2023-07-31T01:23:53;2.75;;;2.50;;
48849;SDS011;63210;53.370;6.770;2023-07-31T01:26:21;5.35;;;2.80;;
48849;SDS011;63210;53.370;6.770;2023-07-31T01:31:23;2.90;;;2.38;;
48849;SDS011;63210;53.370;6.770;2023-07-31T01:33:49;3.80;;;2.30;;
48849;SDS011;63210;53.370;6.770;2023-07-31T01:36:15;8.90;;;2.50;;
48849;SDS011;63210;53.370;6.770;2023-07-31T01:38:40;3.30;;;2.38;;
48849;SDS011;63210;53.370;6.770;2023-07-31T01:41:06;3.47;;;3.05;;
48849;SDS011;63210;53.370;6.770;2023-07-31T01:43:31;3.50;;;2.78;;
48849;SDS011;63210;53.370;6.770;2023-07-31T01:45:56;5.13;;;3.63;;
48849;SDS011;63210;53.370;6.770;2023-07-31T01:48:21;4.03;;;3.58;;
48849;SDS011;63210;53.370;6.770;2023-07-31T01:50:47;5.50;;;3.43;;
48849;SDS011;63210;53.370;6.770;2023-07-31T01:53:12;4.25;;;3.78;;
48849;SDS011;63210;53.370;6.770;2023-07-31T01:55:38;4.18;;;3.78;;
48849;SDS011;63210;53.370;6.770;2023-07-31T01:58:03;4.35;;;3.80;;
48849;SDS011;63210;53.370;6.770;2023-07-31T02:00:28;4.37;;;3.33;;
48849;SDS011;63210;53.370;6.770;2023-07-31T02:02:54;3.75;;;3.03;;
48849;SDS011;63210;53.370;6.770;2023-07-31T02:05:19;4.25;;;3.60;;
48849;SDS011;63210;53.370;6.770;2023-07-31T02:07:44;5.72;;;3.97;;
48849;SDS011;63210;53.370;6.770;2023-07-31T02:10:10;4.63;;;3.50;;
48849;SDS011;63210;53.370;6.770;2023-07-31T02:12:35;5.20;;;3.22;;
48849;SDS011;63210;53.370;6.770;2023-07-31T02:15:00;3.60;;;3.20;;
48849;SDS011;63210;53.370;6.770;2023-07-31T02:17:26;3.70;;;3.13;;
48849;SDS011;63210;53.370;6.770;2023-07-31T02:19:51;5.75;;;3.63;;
48849;SDS011;63210;53.370;6.770;2023-07-31T02:22:16;5.70;;;3.92;;
48849;SDS011;63210;53.370;6.770;2023-07-31T02:24:42;8.88;;;3.80;;
48849;SDS011;63210;53.370;6.770;2023-07-31T02:27:07;4.55;;;4.15;;
48849;SDS011;63210;53.370;6.770;2023-07-31T02:29:32;7.78;;;3.90;;
48849;SDS011;63210;53.370;6.770;2023-07-31T02:31:57;9.25;;;4.82;;
48849;SDS011;63210;53.370;6.770;2023-07-31T02:34:23;5.00;;;3.93;;
48849;SDS011;63210;53.370;6.770;2023-07-31T02:36:48;5.95;;;4.30;;
48849;SDS011;63210;53.370;6.770;2023-07-31T02:39:13;9.05;;;3.90;;
48849;SDS011;63210;53.370;6.770;2023-07-31T02:41:38;5.87;;;3.80;;
48849;SDS011;63210;53.370;6.770;2023-07-31T02:44:04;4.55;;;3.70;;
48849;SDS011;63210;53.370;6.770;2023-07-31T02:46:29;3.47;;;3.00;;
48849;SDS011;63210;53.370;6.770;2023-07-31T02:48:54;7.45;;;4.20;;
48849;SDS011;63210;53.370;6.770;2023-07-31T02:51:19;4.37;;;3.63;;
48849;SDS011;63210;53.370;6.770;2023-07-31T02:53:46;3.80;;;3.50;;
48849;SDS011;63210;53.370;6.770;2023-07-31T02:56:12;3.53;;;3.05;;
48849;SDS011;63210;53.370;6.770;2023-07-31T02:58:38;4.10;;;3.05;;
48849;SDS011;63210;53.370;6.770;2023-07-31T03:01:03;4.17;;;3.00;;
48849;SDS011;63210;53.370;6.770;2023-07-31T03:03:28;3.40;;;3.10;;
48849;SDS011;63210;53.370;6.770;2023-07-31T03:05:53;4.00;;;3.60;;
48849;SDS011;63210;53.370;6.770;2023-07-31T03:08:19;3.83;;;3.10;;
48849;SDS011;63210;53.370;6.770;2023-07-31T03:10:44;3.45;;;3.15;;
48849;SDS011;63210;53.370;6.770;2023-07-31T03:13:09;4.13;;;2.70;;
48849;SDS011;63210;53.370;6.770;2023-07-31T03:15:35;4.40;;;2.90;;
48849;SDS011;63210;53.370;6.770;2023-07-31T03:18:00;4.22;;;2.72;;
48849;SDS011;63210;53.370;6.770;2023-07-31T03:20:25;4.47;;;3.25;;
48849;SDS011;63210;53.370;6.770;2023-07-31T03:22:50;6.93;;;2.80;;
48849;SDS011;63210;53.370;6.770;2023-07-31T03:25:16;7.32;;;2.70;;
48849;SDS011;63210;53.370;6.770;2023-07-31T03:27:41;3.22;;;2.20;;
48849;SDS011;63210;53.370;6.770;2023-07-31T03:30:06;3.33;;;2.45;;
48849;SDS011;63210;53.370;6.770;2023-07-31T03:32:32;3.70;;;2.35;;
48849;SDS011;63210;53.370;6.770;2023-07-31T03:34:57;3.22;;;2.25;;
48849;SDS011;63210;53.370;6.770;2023-07-31T03:37:22;3.72;;;2.30;;
48849;SDS011;63210;53.370;6.770;2023-07-31T03:39:48;2.78;;;2.38;;
48849;SDS011;63210;53.370;6.770;2023-07-31T03:42:13;5.70;;;2.58;;
48849;SDS011;63210;53.370;6.770;2023-07-31T03:44:38;2.42;;;2.15;;
48849;SDS011;63210;53.370;6.770;2023-07-31T03:47:04;3.97;;;3.10;;
48849;SDS011;63210;53.370;6.770;2023-07-31T03:49:29;4.13;;;2.88;;
48849;SDS011;63210;53.370;6.770;2023-07-31T03:51:54;5.73;;;2.47;;
48849;SDS011;63210;53.370;6.770;2023-07-31T03:54:20;6.03;;;3.03;;
48849;SDS011;63210;53.370;6.770;2023-07-31T03:56:45;4.35;;;2.35;;
48849;SDS011;63210;53.370;6.770;2023-07-31T03:59:10;4.60;;;2.85;;
48849;SDS011;63210;53.370;6.770;2023-07-31T04:01:35;8.98;;;3.58;;
48849;SDS011;63210;53.370;6.770;2023-07-31T04:04:01;3.30;;;3.00;;
48849;SDS011;63210;53.370;6.770;2023-07-31T04:06:26;4.78;;;2.92;;
48849;SDS011;63210;53.370;6.770;2023-07-31T04:08:51;6.65;;;2.67;;
48849;SDS011;63210;53.370;6.770;2023-07-31T04:11:16;3.13;;;2.83;;
48849;SDS011;63210;53.370;6.770;2023-07-31T04:13:42;5.18;;;3.20;;
48849;SDS011;63210;53.370;6.770;2023-07-31T04:16:07;4.50;;;3.05;;
48849;SDS011;63210;53.370;6.770;2023-07-31T04:18:32;3.67;;;3.30;;
48849;SDS011;63210;53.370;6.770;2023-07-31T04:20:58;3.50;;;3.20;;
48849;SDS011;63210;53.370;6.770;2023-07-31T04:23:23;6.05;;;3.17;;
48849;SDS011;63210;53.370;6.770;2023-07-31T04:25:49;4.40;;;2.75;;
48849;SDS011;63210;53.370;6.770;2023-07-31T04:28:14;2.47;;;2.28;;
48849;SDS011;63210;53.370;6.770;2023-07-31T04:30:39;3.35;;;2.40;;
48849;SDS011;63210;53.370;6.770;2023-07-31T04:33:05;2.80;;;2.00;;
48849;SDS011;63210;53.370;6.770;2023-07-31T04:35:30;6.72;;;2.78;;
48849;SDS011;63210;53.370;6.770;2023-07-31T04:37:55;4.82;;;2.38;;
48849;SDS011;63210;53.370;6.770;2023-07-31T04:40:20;4.23;;;1.80;;
48849;SDS011;63210;53.370;6.770;2023-07-31T04:42:46;3.13;;;1.83;;
48849;SDS011;63210;53.370;6.770;2023-07-31T04:45:11;5.57;;;1.75;;
48849;SDS011;63210;53.370;6.770;2023-07-31T04:47:36;3.40;;;1.85;;
48849;SDS011;63210;53.370;6.770;2023-07-31T04:50:02;3.75;;;1.70;;
48849;SDS011;63210;53.370;6.770;2023-07-31T04:52:27;2.40;;;1.70;;
48849;SDS011;63210;53.370;6.770;2023-07-31T04:54:52;3.85;;;1.80;;
48849;SDS011;63210;53.370;6.770;2023-07-31T04:57:18;2.75;;;1.77;;
48849;SDS011;63210;53.370;6.770;2023-07-31T04:59:43;3.57;;;1.80;;
48849;SDS011;63210;53.370;6.770;2023-07-31T05:02:08;5.53;;;1.65;;
48849;SDS011;63210;53.370;6.770;2023-07-31T05:04:33;5.35;;;2.00;;
48849;SDS011;63210;53.370;6.770;2023-07-31T05:06:59;3.70;;;2.20;;
48849;SDS011;63210;53.370;6.770;2023-07-31T05:09:24;4.80;;;2.00;;
48849;SDS011;63210;53.370;6.770;2023-07-31T05:11:49;4.15;;;2.13;;
48849;SDS011;63210;53.370;6.770;2023-07-31T05:14:15;3.78;;;2.75;;
48849;SDS011;63210;53.370;6.770;2023-07-31T05:16:40;4.63;;;2.53;;
48849;SDS011;63210;53.370;6.770;2023-07-31T05:19:06;2.80;;;2.40;;
48849;SDS011;63210;53.370;6.770;2023-07-31T05:21:31;3.47;;;1.90;;
48849;SDS011;63210;53.370;6.770;2023-07-31T05:23:56;5.88;;;2.72;;
48849;SDS011;63210;53.370;6.770;2023-07-31T05:26:22;4.80;;;2.53;;
48849;SDS011;63210;53.370;6.770;2023-07-31T05:28:57;7.20;;;2.97;;
48849;SDS011;63210;53.370;6.770;2023-07-31T05:31:23;3.33;;;2.08;;
48849;SDS011;63210;53.370;6.770;2023-07-31T05:33:49;8.57;;;2.33;;
48849;SDS011;63210;53.370;6.770;2023-07-31T05:36:15;4.10;;;1.92;;
48849;SDS011;63210;53.370;6.770;2023-07-31T05:38:42;4.70;;;2.35;;
48849;SDS011;63210;53.370;6.770;2023-07-31T05:41:09;4.43;;;1.75;;
48849;SDS011;63210;53.370;6.770;2023-07-31T05:43:34;2.92;;;2.08;;
48849;SDS011;63210;53.370;6.770;2023-07-31T05:46:00;2.20;;;1.67;;
48849;SDS011;63210;53.370;6.770;2023-07-31T05:48:26;3.90;;;1.92;;
48849;SDS011;63210;53.370;6.770;2023-07-31T05:50:51;3.70;;;2.05;;
48849;SDS011;63210;53.370;6.770;2023-07-31T05:53:17;4.63;;;1.83;;
48849;SDS011;63210;53.370;6.770;2023-07-31T05:55:42;4.55;;;1.77;;
48849;SDS011;63210;53.370;6.770;2023-07-31T05:58:07;1.73;;;1.30;;
48849;SDS011;63210;53.370;6.770;2023-07-31T06:00:32;1.47;;;1.17;;
48849;SDS011;63210;53.370;6.770;2023-07-31T06:02:58;5.03;;;1.92;;
48849;SDS011;63210;53.370;6.770;2023-07-31T06:05:23;2.47;;;1.70;;
48849;SDS011;63210;53.370;6.770;2023-07-31T06:07:51;5.47;;;1.75;;
48849;SDS011;63210;53.370;6.770;2023-07-31T06:10:16;2.08;;;1.00;;
48849;SDS011;63210;53.370;6.770;2023-07-31T06:12:41;2.10;;;1.30;;
48849;SDS011;63210;53.370;6.770;2023-07-31T06:15:07;3.65;;;1.30;;
48849;SDS011;63210;53.370;6.770;2023-07-31T06:17:32;4.03;;;1.42;;
48849;SDS011;63210;53.370;6.770;2023-07-31T06:19:58;3.75;;;1.33;;
48849;SDS011;63210;53.370;6.770;2023-07-31T06:22:23;2.22;;;1.20;;
48849;SDS011;63210;53.370;6.770;2023-07-31T06:24:49;1.92;;;1.00;;
48849;SDS011;63210;53.370;6.770;2023-07-31T06:27:14;4.22;;;1.20;;
48849;SDS011;63210;53.370;6.770;2023-07-31T06:29:39;3.65;;;1.30;;
48849;SDS011;63210;53.370;6.770;2023-07-31T06:32:08;3.55;;;1.50;;
48849;SDS011;63210;53.370;6.770;2023-07-31T06:34:33;2.92;;;1.13;;
48849;SDS011;63210;53.370;6.770;2023-07-31T06:36:59;2.15;;;1.35;;
48849;SDS011;63210;53.370;6.770;2023-07-31T06:39:24;3.30;;;1.35;;
48849;SDS011;63210;53.370;6.770;2023-07-31T06:41:49;1.63;;;1.42;;
48849;SDS011;63210;53.370;6.770;2023-07-31T06:44:15;1.95;;;1.30;;
48849;SDS011;63210;53.370;6.770;2023-07-31T06:46:40;1.60;;;1.50;;
48849;SDS011;63210;53.370;6.770;2023-07-31T06:49:06;2.53;;;1.50;;
48849;SDS011;63210;53.370;6.770;2023-07-31T06:51:31;1.63;;;1.53;;
48849;SDS011;63210;53.370;6.770;2023-07-31T06:53:57;4.05;;;1.80;;
48849;SDS011;63210;53.370;6.770;2023-07-31T06:56:24;3.50;;;1.70;;
48849;SDS011;63210;53.370;6.770;2023-07-31T06:58:51;2.33;;;1.25;;
48849;SDS011;63210;53.370;6.770;2023-07-31T07:01:16;4.18;;;1.90;;
48849;SDS011;63210;53.370;6.770;2023-07-31T07:03:42;2.10;;;1.45;;
48849;SDS011;63210;53.370;6.770;2023-07-31T07:06:07;4.93;;;1.52;;
48849;SDS011;63210;53.370;6.770;2023-07-31T07:08:35;1.90;;;1.35;;
48849;SDS011;63210;53.370;6.770;2023-07-31T07:11:00;2.28;;;1.60;;
48849;SDS011;63210;53.370;6.770;2023-07-31T07:13:26;2.90;;;1.30;;
48849;SDS011;63210;53.370;6.770;2023-07-31T07:15:51;4.05;;;1.80;;
48849;SDS011;63210;53.370;6.770;2023-07-31T07:18:16;3.38;;;2.05;;
48849;SDS011;63210;53.370;6.770;2023-07-31T07:20:52;5.07;;;2.80;;
48849;SDS011;63210;53.370;6.770;2023-07-31T07:23:17;5.13;;;3.28;;
48849;SDS011;63210;53.370;6.770;2023-07-31T07:25:43;6.65;;;3.15;;
48849;SDS011;63210;53.370;6.770;2023-07-31T07:28:09;5.05;;;2.83;;
48849;SDS011;63210;53.370;6.770;2023-07-31T07:30:35;6.22;;;3.42;;
48849;SDS011;63210;53.370;6.770;2023-07-31T07:33:00;9.70;;;3.33;;
48849;SDS011;63210;53.370;6.770;2023-07-31T07:35:25;12.63;;;4.07;;
48849;SDS011;63210;53.370;6.770;2023-07-31T07:37:51;15.82;;;4.72;;
48849;SDS011;63210;53.370;6.770;2023-07-31T07:40:16;17.20;;;5.35;;
48849;SDS011;63210;53.370;6.770;2023-07-31T07:42:41;14.25;;;5.30;;
48849;SDS011;63210;53.370;6.770;2023-07-31T07:45:07;18.03;;;5.83;;
48849;SDS011;63210;53.370;6.770;2023-07-31T07:47:32;19.27;;;5.65;;
48849;SDS011;63210;53.370;6.770;2023-07-31T07:49:58;22.10;;;6.47;;
48849;SDS011;63210;53.370;6.770;2023-07-31T07:52:23;17.13;;;5.45;;
48849;SDS011;63210;53.370;6.770;2023-07-31T07:54:48;21.50;;;6.55;;
48849;SDS011;63210;53.370;6.770;2023-07-31T07:57:14;18.80;;;5.37;;
48849;SDS011;63210;53.370;6.770;2023-07-31T07:59:40;17.70;;;4.78;;
48849;SDS011;63210;53.370;6.770;2023-07-31T08:02:05;14.00;;;4.60;;
48849;SDS011;63210;53.370;6.770;2023-07-31T08:04:30;12.70;;;3.50;;
48849;SDS011;63210;53.370;6.770;2023-07-31T08:06:56;8.70;;;3.67;;
48849;SDS011;63210;53.370;6.770;2023-07-31T08:09:21;9.50;;;3.53;;
48849;SDS011;63210;53.370;6.770;2023-07-31T08:11:46;16.02;;;4.50;;
48849;SDS011;63210;53.370;6.770;2023-07-31T08:14:12;15.57;;;4.80;;
48849;SDS011;63210;53.370;6.770;2023-07-31T08:16:46;18.52;;;4.85;;
48849;SDS011;63210;53.370;6.770;2023-07-31T08:19:14;25.73;;;5.82;;
48849;SDS011;63210;53.370;6.770;2023-07-31T08:21:39;17.95;;;5.50;;
48849;SDS011;63210;53.370;6.770;2023-07-31T08:24:04;16.75;;;5.68;;
48849;SDS011;63210;53.370;6.770;2023-07-31T08:26:30;20.15;;;6.90;;
48849;SDS011;63210;53.370;6.770;2023-07-31T08:28:55;7.32;;;3.47;;
48849;SDS011;63210;53.370;6.770;2023-07-31T08:31:20;9.45;;;3.60;;
48849;SDS011;63210;53.370;6.770;2023-07-31T08:33:46;6.90;;;2.70;;
48849;SDS011;63210;53.370;6.770;2023-07-31T08:36:11;3.50;;;1.70;;
48849;SDS011;63210;53.370;6.770;2023-07-31T08:38:37;2.17;;;1.30;;
48849;SDS011;63210;53.370;6.770;2023-07-31T08:41:04;2.95;;;1.55;;
48849;SDS011;63210;53.370;6.770;2023-07-31T08:43:30;1.83;;;1.20;;
48849;SDS011;63210;53.370;6.770;2023-07-31T08:45:55;1.73;;;1.35;;
48849;SDS011;63210;53.370;6.770;2023-07-31T08:48:22;2.45;;;1.33;;
48849;SDS011;63210;53.370;6.770;2023-07-31T08:50:47;2.95;;;1.08;;
48849;SDS011;63210;53.370;6.770;2023-07-31T08:53:13;1.50;;;1.10;;
48849;SDS011;63210;53.370;6.770;2023-07-31T08:55:38;2.17;;;1.40;;
48849;SDS011;63210;53.370;6.770;2023-07-31T09:06:13;2.70;;;1.40;;
48849;SDS011;63210;53.370;6.770;2023-07-31T09:08:47;1.67;;;1.20;;
48849;SDS011;63210;53.370;6.770;2023-07-31T09:11:15;1.38;;;1.17;;
48849;SDS011;63210;53.370;6.770;2023-07-31T09:13:41;1.50;;;1.30;;
48849;SDS011;63210;53.370;6.770;2023-07-31T09:16:07;3.47;;;1.25;;
48849;SDS011;63210;53.370;6.770;2023-07-31T09:18:40;2.67;;;1.00;;
48849;SDS011;63210;53.370;6.770;2023-07-31T09:21:18;1.90;;;1.10;;
48849;SDS011;63210;53.370;6.770;2023-07-31T09:23:44;2.55;;;1.17;;
48849;SDS011;63210;53.370;6.770;2023-07-31T09:26:10;1.92;;;1.20;;
48849;SDS011;63210;53.370;6.770;2023-07-31T09:28:35;1.30;;;1.10;;
48849;SDS011;63210;53.370;6.770;2023-07-31T09:31:03;1.52;;;1.17;;
48849;SDS011;63210;53.370;6.770;2023-07-31T09:33:28;1.27;;;1.15;;
48849;SDS011;63210;53.370;6.770;2023-07-31T09:35:54;1.90;;;1.00;;
48849;SDS011;63210;53.370;6.770;2023-07-31T09:38:19;1.70;;;1.10;;
48849;SDS011;63210;53.370;6.770;2023-07-31T09:40:45;1.60;;;1.15;;
48849;SDS011;63210;53.370;6.770;2023-07-31T09:43:11;1.60;;;1.02;;
48849;SDS011;63210;53.370;6.770;2023-07-31T09:45:37;2.17;;;1.30;;
48849;SDS011;63210;53.370;6.770;2023-07-31T09:48:07;1.60;;;1.15;;
48849;SDS011;63210;53.370;6.770;2023-07-31T09:50:34;2.53;;;1.25;;
48849;SDS011;63210;53.370;6.770;2023-07-31T09:53:01;1.48;;;1.30;;
48849;SDS011;63210;53.370;6.770;2023-07-31T09:55:26;1.98;;;1.10;;
48849;SDS011;63210;53.370;6.770;2023-07-31T09:57:52;1.85;;;1.00;;
48849;SDS011;63210;53.370;6.770;2023-07-31T10:00:19;0.98;;;0.88;;
48849;SDS011;63210;53.370;6.770;2023-07-31T10:02:47;1.23;;;0.90;;
48849;SDS011;63210;53.370;6.770;2023-07-31T10:05:15;1.77;;;1.10;;
48849;SDS011;63210;53.370;6.770;2023-07-31T10:07:42;1.83;;;1.00;;
48849;SDS011;63210;53.370;6.770;2023-07-31T10:10:08;1.17;;;1.08;;
48849;SDS011;63210;53.370;6.770;2023-07-31T10:12:34;4.30;;;0.73;;
48849;SDS011;63210;53.370;6.770;2023-07-31T10:15:01;0.70;;;0.65;;
48849;SDS011;63210;53.370;6.770;2023-07-31T10:17:26;1.05;;;0.63;;
48849;SDS011;63210;53.370;6.770;2023-07-31T10:19:52;1.13;;;0.75;;
48849;SDS011;63210;53.370;6.770;2023-07-31T10:22:18;1.73;;;0.63;;
48849;SDS011;63210;53.370;6.770;2023-07-31T10:24:45;3.22;;;0.80;;
48849;SDS011;63210;53.370;6.770;2023-07-31T10:27:10;1.38;;;0.70;;
48849;SDS011;63210;53.370;6.770;2023-07-31T10:29:37;0.95;;;0.77;;
48849;SDS011;63210;53.370;6.770;2023-07-31T10:32:03;0.65;;;0.60;;
48849;SDS011;63210;53.370;6.770;2023-07-31T10:34:31;0.50;;;0.50;;
48849;SDS011;63210;53.370;6.770;2023-07-31T10:39:58;1.23;;;0.70;;
48849;SDS011;63210;53.370;6.770;2023-07-31T10:43:07;1.05;;;0.70;;
48849;SDS011;63210;53.370;6.770;2023-07-31T10:45:14;0.90;;;0.80;;
48849;SDS011;63210;53.370;6.770;2023-07-31T10:52:44;5.65;;;1.30;;
48849;SDS011;63210;53.370;6.770;2023-07-31T10:55:16;2.33;;;1.58;;
48849;SDS011;63210;53.370;6.770;2023-07-31T10:57:47;4.82;;;1.95;;
48849;SDS011;63210;53.370;6.770;2023-07-31T11:00:19;3.42;;;1.70;;
48849;SDS011;63210;53.370;6.770;2023-07-31T11:05:40;6.90;;;2.30;;
48849;SDS011;63210;53.370;6.770;2023-07-31T11:10:36;5.60;;;2.30;;
48849;SDS011;63210;53.370;6.770;2023-07-31T11:13:04;6.38;;;1.80;;
48849;SDS011;63210;53.370;6.770;2023-07-31T11:15:30;4.00;;;1.65;;
48849;SDS011;63210;53.370;6.770;2023-07-31T11:17:55;3.55;;;1.42;;
48849;SDS011;63210;53.370;6.770;2023-07-31T11:20:23;4.75;;;1.55;;
48849;SDS011;63210;53.370;6.770;2023-07-31T11:22:52;2.15;;;1.30;;
48849;SDS011;63210;53.370;6.770;2023-07-31T11:27:45;3.70;;;1.50;;
48849;SDS011;63210;53.370;6.770;2023-07-31T11:30:13;4.80;;;1.58;;
48849;SDS011;63210;53.370;6.770;2023-07-31T11:32:44;3.00;;;1.70;;
48849;SDS011;63210;53.370;6.770;2023-07-31T11:35:12;3.88;;;1.63;;
48849;SDS011;63210;53.370;6.770;2023-07-31T11:37:44;4.13;;;1.50;;
48849;SDS011;63210;53.370;6.770;2023-07-31T11:40:22;4.15;;;1.50;;
48849;SDS011;63210;53.370;6.770;2023-07-31T11:42:47;2.97;;;1.58;;
48849;SDS011;63210;53.370;6.770;2023-07-31T11:45:12;4.80;;;1.58;;
48849;SDS011;63210;53.370;6.770;2023-07-31T11:47:38;5.57;;;1.80;;
48849;SDS011;63210;53.370;6.770;2023-07-31T11:50:04;7.43;;;1.80;;
48849;SDS011;63210;53.370;6.770;2023-07-31T11:52:30;3.33;;;1.77;;
48849;SDS011;63210;53.370;6.770;2023-07-31T11:54:56;3.40;;;1.80;;
48849;SDS011;63210;53.370;6.770;2023-07-31T11:57:22;2.35;;;1.50;;
48849;SDS011;63210;53.370;6.770;2023-07-31T11:59:50;10.48;;;2.80;;
48849;SDS011;63210;53.370;6.770;2023-07-31T12:02:16;3.35;;;1.60;;
48849;SDS011;63210;53.370;6.770;2023-07-31T12:04:41;3.00;;;1.48;;
48849;SDS011;63210;53.370;6.770;2023-07-31T12:07:07;4.22;;;1.83;;
48849;SDS011;63210;53.370;6.770;2023-07-31T12:09:32;4.50;;;1.45;;
48849;SDS011;63210;53.370;6.770;2023-07-31T12:12:05;3.47;;;1.60;;
48849;SDS011;63210;53.370;6.770;2023-07-31T12:14:32;3.63;;;1.23;;
48849;SDS011;63210;53.370;6.770;2023-07-31T12:16:58;8.07;;;1.50;;
48849;SDS011;63210;53.370;6.770;2023-07-31T12:19:34;3.47;;;1.40;;
48849;SDS011;63210;53.370;6.770;2023-07-31T12:22:00;2.83;;;1.55;;
48849;SDS011;63210;53.370;6.770;2023-07-31T12:24:26;7.32;;;1.77;;
48849;SDS011;63210;53.370;6.770;2023-07-31T12:26:54;6.82;;;1.95;;
48849;SDS011;63210;53.370;6.770;2023-07-31T12:29:20;3.85;;;1.38;;
48849;SDS011;63210;53.370;6.770;2023-07-31T12:31:45;1.50;;;1.27;;
48849;SDS011;63210;53.370;6.770;2023-07-31T12:34:17;2.80;;;1.33;;
48849;SDS011;63210;53.370;6.770;2023-07-31T12:36:43;2.53;;;1.02;;
48849;SDS011;63210;53.370;6.770;2023-07-31T12:39:09;1.98;;;1.40;;
48849;SDS011;63210;53.370;6.770;2023-07-31T12:41:34;3.63;;;1.40;;
48849;SDS011;63210;53.370;6.770;2023-07-31T12:43:59;3.03;;;1.50;;
48849;SDS011;63210;53.370;6.770;2023-07-31T12:46:24;3.95;;;1.50;;
48849;SDS011;63210;53.370;6.770;2023-07-31T12:48:50;1.87;;;1.40;;
48849;SDS011;63210;53.370;6.770;2023-07-31T12:51:27;2.88;;;1.65;;
48849;SDS011;63210;53.370;6.770;2023-07-31T12:53:52;6.22;;;1.70;;
48849;SDS011;63210;53.370;6.770;2023-07-31T12:56:17;3.10;;;1.40;;
48849;SDS011;63210;53.370;6.770;2023-07-31T13:01:28;4.47;;;2.40;;
48849;SDS011;63210;53.370;6.770;2023-07-31T13:03:56;7.18;;;2.50;;
48849;SDS011;63210;53.370;6.770;2023-07-31T13:06:24;5.18;;;2.00;;
48849;SDS011;63210;53.370;6.770;2023-07-31T13:08:49;7.80;;;2.22;;
48849;SDS011;63210;53.370;6.770;2023-07-31T13:11:24;8.27;;;2.03;;
48849;SDS011;63210;53.370;6.770;2023-07-31T13:13:49;3.35;;;1.55;;
48849;SDS011;63210;53.370;6.770;2023-07-31T13:16:20;4.00;;;1.30;;
48849;SDS011;63210;53.370;6.770;2023-07-31T13:18:57;4.95;;;1.20;;
48849;SDS011;63210;53.370;6.770;2023-07-31T13:21:31;3.65;;;1.10;;
48849;SDS011;63210;53.370;6.770;2023-07-31T13:23:57;1.98;;;1.15;;
48849;SDS011;63210;53.370;6.770;2023-07-31T13:26:30;1.50;;;0.90;;
48849;SDS011;63210;53.370;6.770;2023-07-31T13:28:58;4.05;;;1.52;;
48849;SDS011;63210;53.370;6.770;2023-07-31T13:31:23;3.47;;;1.20;;
48849;SDS011;63210;53.370;6.770;2023-07-31T13:33:49;4.40;;;1.40;;
48849;SDS011;63210;53.370;6.770;2023-07-31T13:36:17;3.15;;;1.13;;
48849;SDS011;63210;53.370;6.770;2023-07-31T13:38:42;3.45;;;1.30;;
48849;SDS011;63210;53.370;6.770;2023-07-31T13:41:07;2.23;;;1.23;;
48849;SDS011;63210;53.370;6.770;2023-07-31T13:43:33;4.70;;;1.90;;
48849;SDS011;63210;53.370;6.770;2023-07-31T13:45:58;3.53;;;1.80;;
48849;SDS011;63210;53.370;6.770;2023-07-31T13:48:29;8.15;;;2.25;;
48849;SDS011;63210;53.370;6.770;2023-07-31T13:50:54;6.27;;;2.10;;
48849;SDS011;63210;53.370;6.770;2023-07-31T13:53:19;5.82;;;1.60;;
48849;SDS011;63210;53.370;6.770;2023-07-31T13:55:47;3.35;;;1.92;;
48849;SDS011;63210;53.370;6.770;2023-07-31T13:58:14;9.07;;;2.10;;
48849;SDS011;63210;53.370;6.770;2023-07-31T14:00:39;5.95;;;1.98;;
48849;SDS011;63210;53.370;6.770;2023-07-31T14:03:04;3.70;;;2.73;;
48849;SDS011;63210;53.370;6.770;2023-07-31T14:05:30;6.03;;;2.40;;
48849;SDS011;63210;53.370;6.770;2023-07-31T14:07:55;4.30;;;2.15;;
48849;SDS011;63210;53.370;6.770;2023-07-31T14:10:20;5.23;;;2.00;;
48849;SDS011;63210;53.370;6.770;2023-07-31T14:12:46;6.00;;;2.33;;
48849;SDS011;63210;53.370;6.770;2023-07-31T14:15:14;9.30;;;2.70;;
48849;SDS011;63210;53.370;6.770;2023-07-31T14:17:39;8.13;;;2.25;;
48849;SDS011;63210;53.370;6.770;2023-07-31T14:20:05;7.93;;;2.33;;
48849;SDS011;63210;53.370;6.770;2023-07-31T14:22:30;8.55;;;1.95;;
48849;SDS011;63210;53.370;6.770;2023-07-31T14:24:55;9.15;;;2.33;;
48849;SDS011;63210;53.370;6.770;2023-07-31T14:27:21;8.38;;;1.90;;
48849;SDS011;63210;53.370;6.770;2023-07-31T14:29:46;8.10;;;2.30;;
48849;SDS011;63210;53.370;6.770;2023-07-31T14:32:12;6.68;;;2.10;;
48849;SDS011;63210;53.370;6.770;2023-07-31T14:34:37;9.35;;;2.95;;
48849;SDS011;63210;53.370;6.770;2023-07-31T14:37:02;7.70;;;2.35;;
48849;SDS011;63210;53.370;6.770;2023-07-31T14:39:28;6.53;;;2.15;;
48849;SDS011;63210;53.370;6.770;2023-07-31T14:41:53;6.35;;;2.58;;
48849;SDS011;63210;53.370;6.770;2023-07-31T14:44:18;7.50;;;2.45;;
48849;SDS011;63210;53.370;6.770;2023-07-31T14:46:44;8.02;;;2.90;;
48849;SDS011;63210;53.370;6.770;2023-07-31T14:49:09;7.22;;;2.70;;
48849;SDS011;63210;53.370;6.770;2023-07-31T14:51:34;8.07;;;2.90;;
48849;SDS011;63210;53.370;6.770;2023-07-31T14:54:00;5.57;;;2.67;;
48849;SDS011;63210;53.370;6.770;2023-07-31T14:56:27;10.52;;;3.05;;
48849;SDS011;63210;53.370;6.770;2023-07-31T14:58:53;9.98;;;3.40;;
48849;SDS011;63210;53.370;6.770;2023-07-31T15:01:18;9.82;;;3.17;;
48849;SDS011;63210;53.370;6.770;2023-07-31T15:03:43;10.27;;;3.65;;
48849;SDS011;63210;53.370;6.770;2023-07-31T15:06:09;6.32;;;2.78;;
48849;SDS011;63210;53.370;6.770;2023-07-31T15:08:34;6.57;;;2.88;;
48849;SDS011;63210;53.370;6.770;2023-07-31T15:11:01;8.82;;;3.17;;
48849;SDS011;63210;53.370;6.770;2023-07-31T15:13:27;8.68;;;3.05;;
48849;SDS011;63210;53.370;6.770;2023-07-31T15:15:52;6.13;;;2.80;;